createdAt,value
2018-08-11T00:02:01.595Z,101026.73
2018-08-11T00:04:30.481Z,101033.17
2018-08-11T00:06:59.341Z,101027.74
2018-08-11T00:09:28.175Z,101033.17
2018-08-11T00:11:56.993Z,101031.46
2018-08-11T00:14:25.937Z,101026.03
2018-08-11T00:16:54.785Z,101031.81
2018-08-11T00:19:23.608Z,101032.31
2018-08-11T00:21:52.468Z,101030.64
2018-08-11T00:24:21.330Z,101029.28
2018-08-11T00:26:50.731Z,101036.06
2018-08-11T00:29:19.580Z,101034.36
2018-08-11T00:31:48.477Z,101023.99
2018-08-11T00:34:17.395Z,101045.72
2018-08-11T00:36:46.253Z,101037.58
2018-08-11T00:39:15.097Z,101046.22
2018-08-11T00:41:43.883Z,101034.50
2018-08-11T00:44:12.762Z,101042.66
2018-08-11T00:46:41.712Z,101045.37
2018-08-11T00:49:10.566Z,101045.55
2018-08-11T00:51:39.507Z,101051.33
2018-08-11T00:54:08.300Z,101052.34
2018-08-11T00:56:37.170Z,101056.41
2018-08-11T00:59:05.983Z,101052.84
2018-08-11T01:01:34.789Z,101059.63
2018-08-11T01:04:03.662Z,101051.98
2018-08-11T01:06:32.484Z,101044.87
2018-08-11T01:09:01.296Z,101056.73
2018-08-11T01:11:30.192Z,101049.45
2018-08-11T01:13:59.014Z,101059.12
2018-08-11T01:16:27.865Z,101061.31
2018-08-11T01:18:56.766Z,101056.91
2018-08-11T01:21:25.647Z,101058.77
2018-08-11T01:23:54.498Z,101063.34
2018-08-11T01:26:23.996Z,101068.45
2018-08-11T01:28:52.785Z,101070.31
2018-08-11T01:31:21.590Z,101065.56
2018-08-11T01:33:50.429Z,101069.95
2018-08-11T01:36:19.343Z,101072.85
2018-08-11T01:38:48.150Z,101073.35
2018-08-11T01:41:17.031Z,101079.28
2018-08-11T01:43:45.835Z,101074.36
2018-08-11T01:46:14.685Z,101079.28
2018-08-11T01:48:43.513Z,101074.53
2018-08-11T01:51:12.356Z,101078.75
2018-08-11T01:53:41.194Z,101075.70
2018-08-11T01:56:10.460Z,101085.03
2018-08-11T01:58:39.300Z,101083.50
2018-08-11T02:01:08.118Z,101081.28
2018-08-11T02:03:37.001Z,101081.81
2018-08-11T02:06:05.827Z,101085.03
2018-08-11T02:08:34.619Z,101077.39
2018-08-11T02:11:03.536Z,101079.25
2018-08-11T02:13:32.320Z,101077.03
2018-08-11T02:16:01.076Z,101074.50
2018-08-11T02:18:29.915Z,101075.00
2018-08-11T02:20:58.783Z,101078.21
2018-08-11T02:23:27.571Z,101071.78
2018-08-11T02:25:56.474Z,101058.88
2018-08-11T02:28:25.288Z,101067.88
2018-08-11T02:30:54.154Z,101071.60
2018-08-11T02:33:22.930Z,101071.60
2018-08-11T02:35:51.805Z,101066.67
2018-08-11T02:38:20.638Z,101077.03
2018-08-11T02:40:49.439Z,101081.60
2018-08-11T02:43:18.252Z,101087.03
2018-08-11T02:45:47.030Z,101101.47
2018-08-11T02:48:15.832Z,101087.53
2018-08-11T02:50:44.652Z,101085.35
2018-08-11T02:53:13.493Z,101097.03
2018-08-11T02:55:42.305Z,101100.61
2018-08-11T02:58:11.117Z,101101.64
2018-08-11T03:00:39.924Z,101108.92
2018-08-11T03:03:08.698Z,101107.07
2018-08-11T03:05:37.483Z,101107.57
2018-08-11T03:08:06.390Z,101111.64
2018-08-11T03:10:35.152Z,101114.36
2018-08-11T03:13:04.038Z,101113.50
2018-08-11T03:15:32.817Z,101116.22
2018-08-11T03:18:01.571Z,101125.22
2018-08-11T03:20:30.580Z,101124.36
2018-08-11T03:22:59.327Z,101123.50
2018-08-11T03:25:28.093Z,101118.07
2018-08-11T03:27:56.893Z,101116.39
2018-08-11T03:30:25.726Z,101122.32
2018-08-11T03:32:54.500Z,101127.25
2018-08-11T03:35:23.296Z,101134.03
2018-08-11T03:37:52.132Z,101131.82
2018-08-11T03:40:20.974Z,101133.18
2018-08-11T03:42:49.776Z,101134.03
2018-08-11T03:45:18.620Z,101134.53
2018-08-11T03:47:47.497Z,101142.33
2018-08-11T03:50:16.374Z,101135.53
2018-08-11T03:52:45.357Z,101139.11
2018-08-11T03:55:14.172Z,101145.39
2018-08-11T03:57:42.963Z,101145.39
2018-08-11T04:00:12.822Z,101153.54
2018-08-11T04:02:41.719Z,101153.04
2018-08-11T04:05:10.554Z,101158.80
2018-08-11T04:07:39.389Z,101158.30
2018-08-11T04:10:08.216Z,101157.30
2018-08-11T04:12:37.032Z,101158.48
2018-08-11T04:15:06.257Z,101159.16
2018-08-11T04:17:38.755Z,101162.73
2018-08-11T04:20:09.230Z,101171.56
2018-08-11T04:22:38.246Z,101175.81
2018-08-11T04:25:08.044Z,101174.64
2018-08-11T04:27:37.321Z,101177.72
2018-08-11T04:30:07.825Z,101184.86
2018-08-11T04:32:36.630Z,101188.58
2018-08-11T04:35:05.480Z,101191.16
2018-08-11T04:37:34.403Z,101182.84
2018-08-11T04:40:03.589Z,101189.81
2018-08-11T04:42:32.408Z,101188.31
2018-08-11T04:45:01.252Z,101188.31
2018-08-11T04:47:29.994Z,101187.13
2018-08-11T04:49:58.800Z,101188.31
2018-08-11T04:52:27.619Z,101191.71
2018-08-11T04:54:56.488Z,101194.11
2018-08-11T04:57:25.343Z,101193.11
2018-08-11T04:59:54.145Z,101195.50
2018-08-11T05:02:23.020Z,101191.25
2018-08-11T05:04:51.971Z,101186.67
2018-08-11T05:07:20.765Z,101192.44
2018-08-11T05:09:49.810Z,101192.12
2018-08-11T05:12:18.634Z,101206.05
2018-08-11T05:14:47.433Z,101213.92
2018-08-11T05:17:16.269Z,101212.06
2018-08-11T05:19:45.220Z,101213.23
2018-08-11T05:22:14.001Z,101210.88
2018-08-11T05:24:42.738Z,101219.53
2018-08-11T05:27:11.591Z,101209.03
2018-08-11T05:29:40.424Z,101214.64
2018-08-11T05:32:09.256Z,101225.33
2018-08-11T05:34:38.063Z,101221.97
2018-08-11T05:37:07.182Z,101210.92
2018-08-11T05:39:36.043Z,101209.74
2018-08-11T05:42:05.053Z,101211.28
2018-08-11T05:44:33.838Z,101210.28
2018-08-11T05:47:02.622Z,101209.92
2018-08-11T05:49:31.531Z,101210.63
2018-08-11T05:52:00.301Z,101204.16
2018-08-11T05:54:29.063Z,101199.44
2018-08-11T05:56:57.852Z,101203.16
2018-08-11T05:59:27.396Z,101199.79
2018-08-11T06:01:56.165Z,101203.69
2018-08-11T06:04:24.984Z,101194.84
2018-08-11T06:06:53.743Z,101205.58
2018-08-11T06:09:22.573Z,101200.82
2018-08-11T06:11:51.378Z,101202.36
2018-08-11T06:14:20.182Z,101206.11
2018-08-11T06:16:49.132Z,101207.28
2018-08-11T06:19:17.968Z,101214.26
2018-08-11T06:21:46.700Z,101211.89
2018-08-11T06:24:15.574Z,101215.30
2018-08-11T06:26:44.362Z,101216.36
2018-08-11T06:29:13.165Z,101215.35
2018-08-11T06:31:41.946Z,101210.91
2018-08-11T06:34:10.778Z,101208.37
2018-08-11T06:36:39.963Z,101211.80
2018-08-11T06:39:11.669Z,101217.55
2018-08-11T06:41:40.607Z,101217.23
2018-08-11T06:44:09.450Z,101222.48
2018-08-11T06:46:38.343Z,101225.91
2018-08-11T06:49:07.200Z,101216.72
2018-08-11T06:51:36.181Z,101214.70
2018-08-11T06:54:05.190Z,101223.54
2018-08-11T06:56:34.065Z,101218.95
2018-08-11T06:59:02.916Z,101226.75
2018-08-11T07:01:31.795Z,101225.25
2018-08-11T07:04:00.632Z,101227.46
2018-08-11T07:06:29.490Z,101221.84
2018-08-11T07:08:58.284Z,101219.47
2018-08-11T07:11:27.159Z,101221.51
2018-08-11T07:13:56.023Z,101218.79
2018-08-11T07:16:24.973Z,101217.24
2018-08-11T07:18:54.066Z,101226.27
2018-08-11T07:21:22.908Z,101218.45
2018-08-11T07:23:51.650Z,101217.09
2018-08-11T07:26:20.513Z,101220.67
2018-08-11T07:28:49.415Z,101219.31
2018-08-11T07:31:18.235Z,101212.16
2018-08-11T07:33:47.030Z,101214.38
2018-08-11T07:36:15.973Z,101219.46
2018-08-11T07:38:44.764Z,101228.98
2018-08-11T07:41:13.642Z,101225.77
2018-08-11T07:43:42.567Z,101223.22
2018-08-11T07:46:11.338Z,101223.73
2018-08-11T07:48:40.209Z,101223.37
2018-08-11T07:51:09.192Z,101227.80
2018-08-11T07:53:38.025Z,101235.61
2018-08-11T07:56:06.940Z,101224.91
2018-08-11T07:58:35.707Z,101230.86
2018-08-11T08:01:04.664Z,101232.22
2018-08-11T08:03:33.468Z,101228.64
2018-08-11T08:06:02.490Z,101230.00
2018-08-11T08:08:31.359Z,101225.25
2018-08-11T08:11:00.185Z,101223.03
2018-08-11T08:13:28.974Z,101221.16
2018-08-11T08:15:57.880Z,101223.03
2018-08-11T08:18:26.730Z,101225.93
2018-08-11T08:20:55.550Z,101220.64
2018-08-11T08:23:24.396Z,101226.27
2018-08-11T08:25:53.217Z,101228.98
2018-08-11T08:28:22.047Z,101221.83
2018-08-11T08:30:51.198Z,101220.97
2018-08-11T08:33:20.042Z,101220.14
2018-08-11T08:35:48.991Z,101227.45
2018-08-11T08:38:17.801Z,101226.77
2018-08-11T08:40:46.575Z,101231.86
2018-08-11T08:43:15.364Z,101236.94
2018-08-11T08:45:44.256Z,101232.54
2018-08-11T08:48:13.051Z,101229.47
2018-08-11T08:50:41.802Z,101227.75
2018-08-11T08:53:10.658Z,101238.31
2018-08-11T08:55:39.434Z,101239.67
2018-08-11T08:58:08.243Z,101245.79
2018-08-11T09:00:37.127Z,101242.72
2018-08-11T09:03:06.016Z,101254.95
2018-08-11T09:05:34.917Z,101242.36
2018-08-11T09:08:03.838Z,101241.68
2018-08-11T09:10:32.690Z,101240.00
2018-08-11T09:13:01.610Z,101241.86
2018-08-11T09:15:30.437Z,101241.00
2018-08-11T09:17:59.248Z,101237.94
2018-08-11T09:20:28.065Z,101239.29
2018-08-11T09:22:57.443Z,101235.39
2018-08-11T09:25:26.274Z,101239.11
2018-08-11T09:27:55.092Z,101230.06
2018-08-11T09:30:23.954Z,101228.03
2018-08-11T09:32:52.824Z,101220.37
2018-08-11T09:35:21.617Z,101217.84
2018-08-11T09:37:50.402Z,101220.91
2018-08-11T09:40:19.184Z,101217.48
2018-08-11T09:42:47.995Z,101209.86
2018-08-11T09:45:16.816Z,101217.16
2018-08-11T09:47:45.748Z,101214.44
2018-08-11T09:50:14.665Z,101210.86
2018-08-11T09:52:43.600Z,101207.28
2018-08-11T09:55:12.878Z,101206.11
2018-08-11T09:57:41.893Z,101210.19
2018-08-11T10:00:11.175Z,101210.19
2018-08-11T10:02:40.002Z,101204.89
2018-08-11T10:05:10.011Z,101201.67
2018-08-11T10:07:45.840Z,101200.14
2018-08-11T10:10:14.800Z,101195.20
2018-08-11T10:12:43.619Z,101201.50
2018-08-11T10:15:21.879Z,101199.81
2018-08-11T10:20:27.866Z,101189.59
2018-08-11T10:22:57.111Z,101192.31
2018-08-11T10:25:26.050Z,101190.95
2018-08-11T10:27:54.895Z,101193.34
2018-08-11T10:30:23.681Z,101190.27
2018-08-11T10:32:52.458Z,101184.84
2018-08-11T10:35:30.160Z,101184.48
2018-08-11T10:37:59.148Z,101181.44
2018-08-11T10:40:28.138Z,101188.73
2018-08-11T10:43:13.286Z,101184.30
2018-08-11T10:45:49.964Z,101180.76
2018-08-11T10:48:18.906Z,101177.19
2018-08-11T10:51:00.084Z,101174.11
2018-08-11T10:53:29.162Z,101175.97
2018-08-11T10:55:58.040Z,101164.78
2018-08-11T10:58:44.334Z,101163.06
2018-08-11T11:01:14.129Z,101165.78
2018-08-11T11:03:42.992Z,101160.52
2018-08-11T11:06:11.994Z,101159.67
2018-08-11T11:08:41.085Z,101155.59
2018-08-11T11:11:09.937Z,101148.44
2018-08-11T11:13:38.731Z,101145.72
2018-08-11T11:16:07.787Z,101147.08
2018-08-11T11:18:36.719Z,101156.27
2018-08-11T11:21:06.035Z,101143.00
2018-08-11T11:23:34.974Z,101146.22
2018-08-11T11:26:03.923Z,101139.11
2018-08-11T11:28:32.709Z,101142.33
2018-08-11T11:31:01.524Z,101136.03
2018-08-11T11:33:30.434Z,101133.31
2018-08-11T11:35:59.319Z,101128.73
2018-08-11T11:38:28.129Z,101133.00
2018-08-11T11:40:56.934Z,101132.45
2018-08-11T11:43:25.845Z,101119.91
2018-08-11T11:45:56.621Z,101123.48
2018-08-11T11:48:25.524Z,101120.23
2018-08-11T11:50:54.403Z,101123.48
2018-08-11T11:53:23.279Z,101110.39
2018-08-11T11:55:52.182Z,101113.44
2018-08-11T11:58:20.995Z,101093.91
2018-08-11T12:00:49.858Z,101107.85
2018-08-11T12:03:18.716Z,101106.31
2018-08-11T12:05:47.577Z,101094.58
2018-08-11T12:08:16.444Z,101094.44
2018-08-11T12:10:45.295Z,101087.64
2018-08-11T12:13:14.140Z,101091.22
2018-08-11T12:15:43.036Z,101089.50
2018-08-11T12:18:11.970Z,101088.64
2018-08-11T12:20:40.869Z,101082.20
2018-08-11T12:23:09.838Z,101078.63
2018-08-11T12:25:38.636Z,101075.91
2018-08-11T12:28:07.576Z,101072.34
2018-08-11T12:30:36.412Z,101070.48
2018-08-11T12:33:05.273Z,101063.33
2018-08-11T12:35:34.161Z,101074.37
2018-08-11T12:38:03.087Z,101071.48
2018-08-11T12:40:31.780Z,101057.56
2018-08-11T12:43:00.692Z,101056.20
2018-08-11T12:45:30.476Z,101052.64
2018-08-11T12:47:59.326Z,101060.29
2018-08-11T12:50:28.110Z,101058.58
2018-08-11T12:52:56.932Z,101053.14
2018-08-11T12:55:25.711Z,101052.64
2018-08-11T12:57:54.575Z,101050.42
2018-08-11T13:00:23.591Z,101046.84
2018-08-11T13:02:52.454Z,101043.63
2018-08-11T13:05:21.200Z,101043.48
2018-08-11T13:07:50.042Z,101045.34
2018-08-11T13:10:18.964Z,101044.98
2018-08-11T13:12:47.801Z,101039.55
2018-08-11T13:15:16.562Z,101025.45
2018-08-11T13:17:45.374Z,101029.53
2018-08-11T13:20:14.149Z,101026.81
2018-08-11T13:22:43.179Z,101024.60
2018-08-11T13:25:12.019Z,101022.39
2018-08-11T13:27:40.873Z,101016.13
2018-08-11T13:30:09.740Z,101018.84
2018-08-11T13:32:38.605Z,101014.23
2018-08-11T13:35:07.416Z,101021.03
2018-08-11T13:37:36.275Z,101017.48
2018-08-11T13:40:05.919Z,101016.13
2018-08-11T13:42:34.778Z,101008.80
2018-08-11T13:45:03.663Z,101007.63
2018-08-11T13:47:32.427Z,101000.83
2018-08-11T13:50:01.264Z,101003.05
2018-08-11T13:52:30.185Z,100998.30
2018-08-11T13:54:59.067Z,100990.46
2018-08-11T13:57:27.902Z,100987.74
2018-08-11T13:59:56.893Z,100984.70
2018-08-11T14:02:25.676Z,100981.63
2018-08-11T14:04:54.551Z,100973.84
2018-08-11T14:07:23.509Z,100964.47
2018-08-11T14:09:52.338Z,100966.69
2018-08-11T14:12:21.217Z,100966.69
2018-08-11T14:14:50.020Z,100969.91
2018-08-11T14:17:18.928Z,100964.97
2018-08-11T14:19:47.758Z,100957.67
2018-08-11T14:22:16.578Z,100957.36
2018-08-11T14:24:45.581Z,100953.28
2018-08-11T14:27:14.375Z,100950.03
2018-08-11T14:29:43.294Z,100956.00
2018-08-11T14:32:12.145Z,100950.03
2018-08-11T14:34:41.003Z,100945.64
2018-08-11T14:37:09.762Z,100945.13
2018-08-11T14:39:38.657Z,100945.13
2018-08-11T14:42:07.616Z,100942.06
2018-08-11T14:44:36.737Z,100948.00
2018-08-11T14:47:06.515Z,100948.35
2018-08-11T14:49:35.339Z,100940.89
2018-08-11T14:52:04.444Z,100938.48
2018-08-11T14:54:34.247Z,100944.42
2018-08-11T14:57:03.115Z,100934.91
2018-08-11T14:59:31.978Z,100930.02
2018-08-11T15:02:00.868Z,100927.30
2018-08-11T15:04:29.742Z,100927.80
2018-08-11T15:06:58.543Z,100920.16
2018-08-11T15:09:27.334Z,100922.52
2018-08-11T15:11:56.234Z,100911.14
2018-08-11T15:14:25.018Z,100916.58
2018-08-11T15:16:53.869Z,100918.98
2018-08-11T15:19:22.703Z,100914.91
2018-08-11T15:21:51.582Z,100915.91
2018-08-11T15:24:20.450Z,100914.05
2018-08-11T15:26:49.283Z,100921.34
2018-08-11T15:29:18.053Z,100915.55
2018-08-11T15:31:46.941Z,100918.78
2018-08-11T15:34:15.745Z,100911.67
2018-08-11T15:36:44.529Z,100911.67
2018-08-11T15:39:14.269Z,100909.10
2018-08-11T15:41:43.363Z,100913.36
2018-08-11T15:44:12.271Z,100906.57
2018-08-11T15:46:41.087Z,100899.95
2018-08-11T15:49:09.851Z,100895.88
2018-08-11T15:51:38.709Z,100904.54
2018-08-11T15:54:07.812Z,100901.47
2018-08-11T15:56:36.641Z,100893.83
2018-08-11T15:59:05.533Z,100886.20
2018-08-11T16:01:34.373Z,100888.58
2018-08-11T16:04:03.297Z,100894.01
2018-08-11T16:06:32.115Z,100883.64
2018-08-11T16:09:00.979Z,100886.71
2018-08-11T16:11:29.834Z,100880.42
2018-08-11T16:13:58.702Z,100879.41
2018-08-11T16:16:27.509Z,100882.64
2018-08-11T16:18:56.309Z,100877.70
2018-08-11T16:21:25.231Z,100879.56
2018-08-11T16:23:54.089Z,100877.89
2018-08-11T16:26:22.919Z,100876.00
2018-08-11T16:28:51.997Z,100871.92
2018-08-11T16:31:20.836Z,100871.42
2018-08-11T16:33:49.646Z,100878.39
2018-08-11T16:36:18.416Z,100869.73
2018-08-11T16:38:47.303Z,100876.00
2018-08-11T16:41:16.175Z,100865.67
2018-08-11T16:43:44.936Z,100864.31
2018-08-11T16:46:13.830Z,100860.39
2018-08-11T16:48:42.652Z,100862.41
2018-08-11T16:51:11.517Z,100853.09
2018-08-11T16:53:40.420Z,100811.98
2018-08-11T16:56:09.258Z,100850.37
2018-08-11T16:58:38.031Z,100854.45
2018-08-11T17:01:06.819Z,100851.88
2018-08-11T17:03:35.700Z,100855.10
2018-08-11T17:06:04.548Z,100854.25
2018-08-11T17:08:33.389Z,100861.39
2018-08-11T17:11:02.191Z,100861.89
2018-08-11T17:13:31.056Z,100854.75
2018-08-11T17:15:59.845Z,100858.33
2018-08-11T17:18:28.685Z,100856.11
2018-08-11T17:20:57.563Z,100856.11
2018-08-11T17:23:26.353Z,100853.58
2018-08-11T17:25:55.216Z,100842.36
2018-08-11T17:28:24.222Z,100848.15
2018-08-11T17:30:53.088Z,100843.22
2018-08-11T17:33:21.922Z,100844.07
2018-08-11T17:35:50.823Z,100842.02
2018-08-11T17:38:19.685Z,100840.66
2018-08-11T17:40:48.553Z,100836.58
2018-08-11T17:43:17.378Z,100827.92
2018-08-11T17:45:46.167Z,100824.36
2018-08-11T17:48:15.037Z,100819.45
2018-08-11T17:50:43.902Z,100813.67
2018-08-11T17:53:12.859Z,100802.81
2018-08-11T17:55:41.770Z,100805.02
2018-08-11T17:58:10.614Z,100805.17
2018-08-11T18:00:39.566Z,100806.53
2018-08-11T18:03:08.376Z,100806.22
2018-08-11T18:05:37.205Z,100808.08
2018-08-11T18:08:06.069Z,100799.92
2018-08-11T18:10:34.915Z,100792.47
2018-08-11T18:13:03.854Z,100791.11
2018-08-11T18:15:32.898Z,100795.69
2018-08-11T18:18:01.742Z,100789.91
2018-08-11T18:20:30.648Z,100789.08
2018-08-11T18:22:59.696Z,100783.30
2018-08-11T18:25:28.643Z,100783.30
2018-08-11T18:27:57.569Z,100771.77
2018-08-11T18:30:26.586Z,100774.98
2018-08-11T18:32:55.573Z,100776.84
2018-08-11T18:35:24.535Z,100775.14
2018-08-11T18:37:53.424Z,100771.06
2018-08-11T18:40:22.357Z,100766.17
2018-08-11T18:42:51.289Z,100772.11
2018-08-11T18:45:20.261Z,100770.40
2018-08-11T18:47:49.158Z,100768.19
2018-08-11T18:50:18.182Z,100766.83
2018-08-11T18:52:47.146Z,100763.29
2018-08-11T18:55:16.059Z,100765.16
2018-08-11T18:57:44.957Z,100766.16
2018-08-11T19:00:16.872Z,100765.30
2018-08-11T19:02:46.206Z,100764.98
2018-08-11T19:05:15.146Z,100764.13
2018-08-11T19:07:44.039Z,100760.75
2018-08-11T19:10:13.976Z,100761.06
2018-08-11T19:12:42.882Z,100759.71
2018-08-11T19:15:13.498Z,100751.75
2018-08-11T19:17:47.401Z,100750.04
2018-08-11T19:20:16.352Z,100750.39
2018-08-11T19:22:45.309Z,100746.31
2018-08-11T19:25:14.313Z,100743.60
2018-08-11T19:27:43.901Z,100742.75
2018-08-11T19:30:12.984Z,100737.00
2018-08-11T19:32:41.944Z,100739.17
2018-08-11T19:35:10.885Z,100728.85
2018-08-11T19:37:39.806Z,100725.28
2018-08-11T19:40:09.639Z,100724.25
2018-08-11T19:42:38.598Z,100716.09
2018-08-11T19:45:09.692Z,100714.93
2018-08-11T19:47:38.618Z,100716.63
2018-08-11T19:50:08.512Z,100719.00
2018-08-11T19:52:37.485Z,100715.44
2018-08-11T19:55:07.242Z,100710.85
2018-08-11T19:57:36.213Z,100710.00
2018-08-11T20:00:08.088Z,100705.42
2018-08-11T20:02:37.016Z,100703.22
2018-08-11T20:05:06.598Z,100697.78
2018-08-11T20:07:35.578Z,100691.50
2018-08-11T20:10:06.117Z,100695.06
2018-08-11T20:12:35.025Z,100685.25
2018-08-11T20:15:04.022Z,100689.32
2018-08-11T20:17:32.968Z,100679.28
2018-08-11T20:20:01.844Z,100677.61
2018-08-11T20:22:30.830Z,100670.81
2018-08-11T20:24:59.779Z,100678.11
2018-08-11T20:27:28.564Z,100673.53
2018-08-11T20:29:57.477Z,100675.39
2018-08-11T20:32:26.817Z,100657.75
2018-08-11T20:34:55.741Z,100656.04
2018-08-11T20:37:24.745Z,100652.31
2018-08-11T20:39:53.564Z,100645.69
2018-08-11T20:42:22.414Z,100640.79
2018-08-11T20:44:51.290Z,100628.23
2018-08-11T20:47:20.221Z,100629.93
2018-08-11T20:49:49.110Z,100621.44
2018-08-11T20:52:17.979Z,100622.80
2018-08-11T20:54:47.182Z,100614.30
2018-08-11T20:57:16.071Z,100620.08
2018-08-11T20:59:45.070Z,100611.94
2018-08-11T21:02:14.000Z,100602.94
2018-08-11T21:04:42.910Z,100598.02
2018-08-11T21:07:11.724Z,100599.05
2018-08-11T21:09:40.609Z,100597.70
2018-08-11T21:12:09.581Z,100598.20
2018-08-11T21:14:38.490Z,100598.70
2018-08-11T21:17:07.711Z,100599.56
2018-08-11T21:19:36.539Z,100594.31
2018-08-11T21:22:05.385Z,100599.75
2018-08-11T21:24:34.252Z,100598.05
2018-08-11T21:27:03.115Z,100582.77
2018-08-11T21:29:31.953Z,100591.76
2018-08-11T21:32:00.752Z,100586.52
2018-08-11T21:34:29.681Z,100583.30
2018-08-11T21:36:58.568Z,100588.38
2018-08-11T21:39:27.334Z,100587.02
2018-08-11T21:41:56.114Z,100583.14
2018-08-11T21:44:24.943Z,100588.56
2018-08-11T21:46:53.740Z,100580.58
2018-08-11T21:49:22.632Z,100584.65
2018-08-11T21:51:51.591Z,100587.05
2018-08-11T21:54:20.509Z,100588.41
2018-08-11T21:56:49.327Z,100587.55
2018-08-11T21:59:18.244Z,100583.13
2018-08-11T22:01:47.127Z,100580.07
2018-08-11T22:04:16.055Z,100575.69
2018-08-11T22:06:44.904Z,100574.64
2018-08-11T22:09:14.863Z,100569.41
2018-08-11T22:11:43.861Z,100563.47
2018-08-11T22:14:12.761Z,100563.12
2018-08-11T22:16:41.532Z,100550.91
2018-08-11T22:19:10.405Z,100544.97
2018-08-11T22:21:39.245Z,100543.11
2018-08-11T22:24:08.080Z,100537.18
2018-08-11T22:26:37.030Z,100538.00
2018-08-11T22:29:05.878Z,100535.63
2018-08-11T22:31:34.870Z,100539.55
2018-08-11T22:34:03.802Z,100535.48
2018-08-11T22:36:32.627Z,100535.48
2018-08-11T22:39:01.500Z,100524.94
2018-08-11T22:41:30.486Z,100518.66
2018-08-11T22:43:59.348Z,100519.00
2018-08-11T22:46:28.163Z,100516.09
2018-08-11T22:48:57.081Z,100514.73
2018-08-11T22:51:26.102Z,100512.88
